Time;durP1;ratioP1;P1;durP2;ratioP2;P2;SDS_P1;SDS_P2;PMS_P1;PMS_P2;Temp;Humidity;BMP_temperature;BMP_pressure;BME280_temperature;BME280_humidity;BME280_pressure;Samples;Min_cycle;Max_cycle;Signal;HPM_P1;HPM_P2
2023/04/06 00:01:36;;;;;;;17.13;9.65;;;;;;;6.91;53.72;101712.72;5032509;28;20050;-65
2023/04/06 00:04:03;;;;;;;15.48;10.35;;;;;;;6.92;53.26;101709.78;5031175;28;20057;-66
2023/04/06 00:06:32;;;;;;;13.43;9.18;;;;;;;6.93;53.80;101705.22;5031770;28;20053;-66
2023/04/06 00:09:00;;;;;;;15.25;10.05;;;;;;;6.93;53.46;101705.22;5031871;28;20052;-66
2023/04/06 00:11:28;;;;;;;15.45;10.00;;;;;;;6.91;53.03;101707.31;5034070;28;20050;-65
2023/04/06 00:13:55;;;;;;;17.20;10.43;;;;;;;6.89;53.01;101703.97;5051479;28;20144;-65
2023/04/06 00:16:23;;;;;;;17.25;10.18;;;;;;;6.90;53.15;101705.63;5004024;28;20091;-66
2023/04/06 00:18:51;;;;;;;17.17;9.82;;;;;;;6.88;52.68;101699.59;5051773;28;20462;-66
2023/04/06 00:21:19;;;;;;;15.55;10.15;;;;;;;6.88;53.56;101696.88;5052587;28;20068;-65
2023/04/06 00:23:47;;;;;;;18.63;9.70;;;;;;;6.89;53.14;101693.97;5041307;28;20049;-65
2023/04/06 00:26:15;;;;;;;15.45;10.18;;;;;;;6.92;52.45;101690.81;5036753;28;20050;-65
2023/04/06 00:28:46;;;;;;;16.30;10.13;;;;;;;6.94;52.09;101696.00;5035130;28;20045;-66
2023/04/06 00:31:13;;;;;;;21.77;10.30;;;;;;;6.92;51.76;101696.22;5047374;28;20041;-65
2023/04/06 00:33:41;;;;;;;15.18;10.20;;;;;;;6.90;51.91;101694.78;5053150;28;20103;-66
2023/04/06 00:36:09;;;;;;;16.85;10.65;;;;;;;6.89;51.07;101690.44;5050563;28;20076;-66
2023/04/06 00:38:37;;;;;;;14.50;9.98;;;;;;;6.88;51.89;101686.06;5053286;28;20095;-64
2023/04/06 00:41:04;;;;;;;16.65;9.90;;;;;;;6.88;51.14;101680.63;5028278;28;20065;-65
2023/04/06 00:43:32;;;;;;;15.88;9.82;;;;;;;6.85;51.38;101683.78;5054310;28;20396;-65
2023/04/06 00:46:00;;;;;;;16.75;10.85;;;;;;;6.84;51.79;101680.25;5055451;28;20124;-65
2023/04/06 00:48:30;;;;;;;16.90;10.20;;;;;;;6.83;52.10;101684.84;5034151;28;20389;-65
2023/04/06 00:50:59;;;;;;;15.63;9.93;;;;;;;6.81;52.14;101673.41;5035468;28;20162;-66
2023/04/06 00:53:26;;;;;;;16.10;10.02;;;;;;;6.80;51.64;101674.44;5038183;28;20036;-66
2023/04/06 00:55:54;;;;;;;16.92;10.23;;;;;;;6.79;52.21;101677.41;5055563;28;20053;-65
2023/04/06 00:58:23;;;;;;;16.42;10.20;;;;;;;6.78;52.00;101673.88;5013903;28;20123;-65
2023/04/06 01:00:56;;;;;;;17.67;10.13;;;;;;;6.77;51.62;101668.66;5048503;28;20047;-66
2023/04/06 01:03:48;;;;;;;15.77;10.18;;;;;;;6.77;52.21;101668.66;5039539;28;20045;-65
2023/04/06 01:06:17;;;;;;;14.75;9.95;;;;;;;6.76;52.07;101662.41;5037339;28;20041;-66
2023/04/06 01:08:52;;;;;;;18.35;10.25;;;;;;;6.76;51.85;101659.72;5043503;28;20050;-67
2023/04/06 01:11:22;;;;;;;14.38;9.77;;;;;;;6.75;52.15;101654.50;5009544;28;20064;-65
2023/04/06 01:13:52;;;;;;;18.60;10.35;;;;;;;6.72;52.20;101644.94;5052385;28;20049;-65
2023/04/06 01:16:40;;;;;;;17.52;10.35;;;;;;;6.71;51.87;101648.72;5037598;28;20046;-65
2023/04/06 01:19:11;;;;;;;22.30;10.43;;;;;;;6.70;52.27;101647.03;5032027;28;20045;-65
2023/04/06 01:21:43;;;;;;;21.70;10.07;;;;;;;6.66;52.65;101643.13;5019721;28;20088;-65
2023/04/06 01:24:29;;;;;;;16.52;10.20;;;;;;;6.65;52.54;101644.19;5048645;28;20099;-65
2023/04/06 01:27:04;;;;;;;16.05;10.13;;;;;;;6.66;52.68;101639.59;5042243;28;20047;-67
2023/04/06 01:29:45;;;;;;;19.42;10.38;;;;;;;6.66;52.48;101640.41;5053348;28;20049;-65
2023/04/06 01:32:23;;;;;;;14.88;9.70;;;;;;;6.67;52.21;101639.38;5034120;28;20046;-66
2023/04/06 01:34:54;;;;;;;17.70;10.23;;;;;;;6.67;52.08;101633.13;5045437;28;20045;-66
2023/04/06 01:37:22;;;;;;;17.75;10.45;;;;;;;6.67;52.67;101636.66;5012928;28;20049;-65
2023/04/06 01:39:53;;;;;;;17.75;10.00;;;;;;;6.67;52.30;101625.00;5029283;28;20046;-65
2023/04/06 01:42:36;;;;;;;17.42;10.70;;;;;;;6.67;52.30;101620.41;5040875;28;20497;-68
2023/04/06 01:45:06;;;;;;;20.08;10.15;;;;;;;6.67;52.81;101625.81;5050027;28;20135;-65
2023/04/06 01:47:34;;;;;;;15.95;10.02;;;;;;;6.65;52.44;101627.94;5053270;28;20558;-65
2023/04/06 01:50:05;;;;;;;19.70;10.52;;;;;;;6.66;52.87;101617.91;5040512;28;20052;-66
2023/04/06 01:52:38;;;;;;;16.42;10.23;;;;;;;6.64;52.81;101615.44;5019301;28;20105;-66
2023/04/06 01:55:05;;;;;;;16.55;10.35;;;;;;;6.64;52.89;101614.59;5070188;28;20505;-65
2023/04/06 01:57:55;;;;;;;16.83;10.88;;;;;;;6.62;53.05;101620.25;5015830;28;20486;-67
2023/04/06 02:00:33;;;;;;;14.95;10.07;;;;;;;6.62;52.65;101612.13;5058148;28;20042;-66
2023/04/06 02:03:01;;;;;;;15.68;10.32;;;;;;;6.61;53.18;101611.31;5041323;28;20037;-66
2023/04/06 02:05:33;;;;;;;16.25;10.05;;;;;;;6.63;52.74;101602.94;5044714;28;20163;-65
2023/04/06 02:08:01;;;;;;;17.27;10.98;;;;;;;6.62;53.49;101595.88;5017990;28;20038;-68
2023/04/06 02:10:34;;;;;;;19.30;10.85;;;;;;;6.61;53.44;101599.63;5019859;28;20482;-65
2023/04/06 02:13:10;;;;;;;18.27;10.18;;;;;;;6.61;53.21;101591.50;5016708;28;20045;-65
2023/04/06 02:15:40;;;;;;;15.77;10.88;;;;;;;6.61;53.17;101588.78;5039463;28;20045;-65
2023/04/06 02:18:09;;;;;;;16.15;10.50;;;;;;;6.62;53.18;101587.75;5050534;28;20094;-65
2023/04/06 02:20:37;;;;;;;19.92;11.27;;;;;;;6.61;53.29;101583.38;5027367;28;20478;-65
2023/04/06 02:23:04;;;;;;;17.55;11.20;;;;;;;6.59;53.44;101580.06;5041433;28;20116;-66
2023/04/06 02:25:32;;;;;;;15.95;10.27;;;;;;;6.60;53.42;101577.16;5035193;28;20441;-68
2023/04/06 02:28:00;;;;;;;17.65;10.80;;;;;;;6.61;53.67;101580.66;5034452;28;20053;-65
2023/04/06 02:30:29;;;;;;;16.20;11.00;;;;;;;6.62;53.40;101574.22;5053097;28;20122;-65
2023/04/06 02:32:57;;;;;;;17.85;10.50;;;;;;;6.62;53.72;101579.63;5042640;28;20051;-66
2023/04/06 02:35:27;;;;;;;16.50;10.38;;;;;;;6.63;53.82;101575.03;5051712;28;20049;-65
2023/04/06 02:37:55;;;;;;;18.58;11.48;;;;;;;6.62;53.20;101568.81;5028150;28;20490;-66
2023/04/06 02:40:24;;;;;;;20.95;10.63;;;;;;;6.62;53.12;101568.81;5033030;28;20132;-66
2023/04/06 02:42:52;;;;;;;18.92;10.85;;;;;;;6.60;54.02;101568.19;5035981;28;20057;-64
2023/04/06 02:45:27;;;;;;;20.05;12.05;;;;;;;6.60;53.53;101565.50;5032740;28;20069;-64
2023/04/06 02:47:55;;;;;;;21.05;11.85;;;;;;;6.59;53.84;101558.41;5022561;28;20148;-65
2023/04/06 02:50:25;;;;;;;16.85;11.20;;;;;;;6.58;54.28;101559.47;5045677;28;20485;-66
2023/04/06 02:53:00;;;;;;;19.90;11.73;;;;;;;6.57;53.90;101555.13;5028967;28;20057;-66
2023/04/06 02:55:28;;;;;;;19.77;12.73;;;;;;;6.57;53.96;101560.53;5051620;28;20123;-64
2023/04/06 02:57:56;;;;;;;18.63;12.18;;;;;;;6.56;54.14;101548.03;5038425;28;20045;-67
2023/04/06 03:00:29;;;;;;;19.23;11.80;;;;;;;6.55;54.39;101555.31;5029370;28;20124;-65
2023/04/06 03:02:56;;;;;;;17.00;11.65;;;;;;;6.56;54.45;101546.13;5044591;28;20057;-65
2023/04/06 03:05:26;;;;;;;20.13;12.13;;;;;;;6.56;54.75;101545.31;5051575;28;20121;-65
2023/04/06 03:07:54;;;;;;;18.80;12.88;;;;;;;6.54;55.10;101547.41;5043409;28;20139;-66
2023/04/06 03:10:35;;;;;;;19.02;13.10;;;;;;;6.56;54.72;101537.19;5028009;28;20068;-65
2023/04/06 03:13:02;;;;;;;19.42;12.65;;;;;;;6.57;55.41;101547.81;5063401;28;20560;-65
2023/04/06 03:15:42;;;;;;;21.73;13.20;;;;;;;6.57;55.19;101547.00;5051700;28;20091;-64
2023/04/06 03:18:14;;;;;;;21.50;13.57;;;;;;;6.56;55.46;101538.03;5030830;28;20481;-65
2023/04/06 03:20:47;;;;;;;21.33;13.32;;;;;;;6.57;55.28;101538.88;5048909;28;20047;-66
2023/04/06 03:23:16;;;;;;;21.33;13.63;;;;;;;6.58;55.43;101535.09;5035423;28;20559;-64
2023/04/06 03:25:46;;;;;;;19.55;12.60;;;;;;;6.59;55.55;101534.03;5037573;28;20055;-67
2023/04/06 03:28:17;;;;;;;20.85;13.65;;;;;;;6.58;55.75;101535.09;5035431;28;20444;-65
2023/04/06 03:30:52;;;;;;;22.02;13.77;;;;;;;6.55;56.22;101530.97;5033520;28;20033;-65
2023/04/06 03:33:40;;;;;;;21.50;13.32;;;;;;;6.54;55.90;101528.47;5020453;28;20061;-65
2023/04/06 03:36:12;;;;;;;21.17;13.43;;;;;;;6.54;56.46;101528.47;5011957;28;20411;-65
2023/04/06 03:38:42;;;;;;;20.40;13.10;;;;;;;6.52;56.61;101525.19;5032355;28;20163;-68
2023/04/06 03:41:12;;;;;;;20.27;13.68;;;;;;;6.52;56.43;101528.72;5043939;28;20092;-65
2023/04/06 03:43:45;;;;;;;21.63;13.95;;;;;;;6.53;56.69;101533.06;5027328;28;20045;-65
2023/04/06 03:46:13;;;;;;;20.58;13.70;;;;;;;6.50;56.64;101527.28;5064589;28;20100;-65
2023/04/06 03:48:41;;;;;;;19.60;13.95;;;;;;;6.50;56.95;101527.28;5044971;28;20041;-66
2023/04/06 03:51:08;;;;;;;22.83;14.20;;;;;;;6.51;56.82;101518.09;5055020;28;20084;-65
2023/04/06 03:53:37;;;;;;;21.30;13.80;;;;;;;6.52;57.24;101520.59;5028866;28;20045;-66
2023/04/06 03:56:05;;;;;;;22.25;13.55;;;;;;;6.53;57.57;101521.41;5054729;28;20041;-66
2023/04/06 03:58:32;;;;;;;20.95;13.90;;;;;;;6.50;57.43;101511.84;5049787;28;20033;-66
2023/04/06 04:01:00;;;;;;;21.98;14.13;;;;;;;6.49;57.70;101512.06;5042213;28;20128;-65
2023/04/06 04:03:28;;;;;;;22.10;14.50;;;;;;;6.49;57.63;101517.47;5050066;28;20051;-68
2023/04/06 04:05:56;;;;;;;23.88;14.88;;;;;;;6.49;58.12;101517.47;5032705;28;20053;-64
2023/04/06 04:08:25;;;;;;;27.40;14.90;;;;;;;6.48;57.86;101519.38;5050482;28;20477;-64
2023/04/06 04:10:53;;;;;;;28.00;15.40;;;;;;;6.48;58.12;101519.38;5034608;28;20437;-65
2023/04/06 04:13:21;;;;;;;23.92;15.23;;;;;;;6.40;58.38;101528.63;5047192;28;20543;-66
2023/04/06 04:15:51;;;;;;;23.20;14.93;;;;;;;6.36;58.66;101524.69;5031011;28;20049;-64
2023/04/06 04:18:18;;;;;;;25.23;14.73;;;;;;;6.33;58.58;101525.13;5051902;28;20041;-65
2023/04/06 04:20:46;;;;;;;22.25;14.60;;;;;;;6.33;58.90;101525.13;5055100;28;20075;-65
2023/04/06 04:23:14;;;;;;;23.95;14.85;;;;;;;6.32;59.31;101520.75;5037989;28;20049;-65
2023/04/06 04:25:43;;;;;;;23.35;14.85;;;;;;;6.31;59.36;101519.13;5049601;28;20053;-65
2023/04/06 04:28:11;;;;;;;25.88;15.25;;;;;;;6.32;59.51;101520.75;5020131;28;20088;-66
2023/04/06 04:30:40;;;;;;;23.30;14.82;;;;;;;6.33;59.18;101521.63;5034989;28;20049;-65
2023/04/06 04:33:10;;;;;;;23.23;15.27;;;;;;;6.35;59.72;101522.19;5030144;28;20515;-64
2023/04/06 04:35:38;;;;;;;22.33;14.48;;;;;;;6.36;59.83;101524.69;5047546;28;20061;-66
2023/04/06 04:38:07;;;;;;;25.90;15.70;;;;;;;6.38;60.18;101519.88;5038389;28;20063;-65
2023/04/06 04:40:39;;;;;;;24.17;15.43;;;;;;;6.37;60.06;101518.25;5025380;28;20061;-67
2023/04/06 04:43:09;;;;;;;23.10;15.25;;;;;;;6.32;60.79;101520.75;5018705;28;20107;-64
2023/04/06 04:45:37;;;;;;;23.33;14.95;;;;;;;6.27;61.24;101514.38;5046353;28;20044;-64
2023/04/06 04:48:36;;;;;;;22.05;14.65;;;;;;;6.27;61.60;101507.06;5047179;28;20045;-66
2023/04/06 04:51:08;;;;;;;21.35;14.35;;;;;;;6.28;61.50;101510.63;5045689;28;20059;-66
2023/04/06 04:54:03;;;;;;;20.80;15.18;;;;;;;6.31;61.35;101518.28;5038239;28;20049;-68
2023/04/06 04:56:32;;;;;;;24.70;15.68;;;;;;;6.31;61.61;101508.28;5042451;28;20065;-65
2023/04/06 04:59:23;;;;;;;22.55;15.52;;;;;;;6.33;60.90;101513.50;5039783;28;20114;-65
2023/04/06 05:01:59;;;;;;;21.70;15.05;;;;;;;6.33;60.98;101516.19;5030349;28;20046;-65
2023/04/06 05:04:40;;;;;;;23.38;14.50;;;;;;;6.31;61.46;101508.28;5013987;28;20053;-65
2023/04/06 05:07:11;;;;;;;21.25;15.70;;;;;;;6.33;61.73;101517.03;5040766;28;20068;-64
2023/04/06 05:09:41;;;;;;;22.80;15.20;;;;;;;6.33;61.75;101510.78;5033682;28;20501;-66
2023/04/06 05:12:10;;;;;;;22.67;15.32;;;;;;;6.32;62.12;101515.34;5011721;28;20091;-66
2023/04/06 05:14:47;;;;;;;24.58;16.08;;;;;;;6.32;61.74;101514.53;5052428;28;20401;-65
2023/04/06 05:17:18;;;;;;;24.15;16.17;;;;;;;6.32;62.05;101514.53;5052509;28;20049;-65
2023/04/06 05:19:46;;;;;;;22.17;14.38;;;;;;;6.32;61.88;101511.81;5044052;28;20132;-65
2023/04/06 05:22:22;;;;;;;24.40;16.05;;;;;;;6.30;62.20;101517.47;5029144;28;20049;-65
2023/04/06 05:24:58;;;;;;;23.98;16.33;;;;;;;6.30;62.28;101511.22;5030833;28;20049;-64
2023/04/06 05:27:26;;;;;;;25.05;16.77;;;;;;;6.25;62.87;101514.56;5052004;28;20071;-65
2023/04/06 05:29:54;;;;;;;33.97;17.15;;;;;;;6.16;63.25;101511.34;5049968;28;20091;-65
2023/04/06 05:32:27;;;;;;;26.92;16.83;;;;;;;6.16;63.38;101516.75;5041259;28;20056;-65
2023/04/06 05:34:56;;;;;;;24.80;16.83;;;;;;;6.16;63.67;101510.53;5036252;28;20049;-65
2023/04/06 05:37:24;;;;;;;28.65;17.48;;;;;;;6.15;63.69;101509.66;5052853;28;20131;-64
2023/04/06 05:39:53;;;;;;;27.08;16.50;;;;;;;6.15;63.63;101514.25;5042800;28;20041;-64
2023/04/06 05:42:22;;;;;;;27.77;16.60;;;;;;;6.17;63.56;101510.28;5034667;28;20078;-63
2023/04/06 05:44:56;;;;;;;27.80;17.17;;;;;;;6.20;63.83;101503.59;4995257;28;20037;-65
2023/04/06 05:47:24;;;;;;;28.98;16.98;;;;;;;6.22;64.00;101504.22;5045199;28;20041;-64
2023/04/06 05:50:00;;;;;;;21.38;15.30;;;;;;;6.27;63.81;101506.25;5053731;28;20393;-65
2023/04/06 05:52:38;;;;;;;26.30;16.80;;;;;;;6.28;63.47;101497.91;5052100;28;20501;-69
2023/04/06 05:55:06;;;;;;;24.38;16.25;;;;;;;6.32;63.84;101501.00;5057082;28;20079;-65
2023/04/06 05:57:37;;;;;;;23.02;15.95;;;;;;;6.34;64.10;101499.72;5024962;28;20049;-64
2023/04/06 06:00:09;;;;;;;25.80;17.02;;;;;;;6.35;64.15;101504.09;5022890;28;20041;-66
2023/04/06 06:02:42;;;;;;;25.58;17.27;;;;;;;6.35;64.08;101501.38;5045489;28;20047;-65
2023/04/06 06:05:16;;;;;;;27.67;15.90;;;;;;;6.35;63.62;101495.97;4351117;28;10000411;-66
2023/04/06 06:07:45;;;;;;;26.90;17.25;;;;;;;6.35;64.48;101490.56;5032198;28;20053;-65
2023/04/06 06:10:13;;;;;;;25.52;16.92;;;;;;;6.36;64.40;101496.78;4997397;28;20500;-65
2023/04/06 06:12:40;;;;;;;24.08;16.83;;;;;;;6.35;64.80;101495.13;5028982;28;20060;-66
2023/04/06 06:15:09;;;;;;;26.55;17.55;;;;;;;6.37;64.77;101502.00;5036641;28;20053;-65
2023/04/06 06:17:43;;;;;;;28.42;16.20;;;;;;;6.38;65.42;101492.00;5019495;28;20195;-66
2023/04/06 06:20:12;;;;;;;24.60;16.52;;;;;;;6.37;65.12;101496.59;5049073;28;20048;-65
2023/04/06 06:22:40;;;;;;;28.23;17.55;;;;;;;6.37;65.72;101493.03;5030853;28;20063;-66
2023/04/06 06:25:11;;;;;;;31.08;17.10;;;;;;;6.38;65.75;101492.00;5038984;28;20054;-64
2023/04/06 06:27:39;;;;;;;25.60;16.45;;;;;;;6.38;65.53;101497.41;5029834;28;20059;-65
2023/04/06 06:30:07;;;;;;;24.73;15.57;;;;;;;6.37;65.96;101496.59;5032073;28;20409;-68
2023/04/06 06:32:39;;;;;;;23.00;16.02;;;;;;;6.37;66.25;101491.16;5025837;28;20037;-65
2023/04/06 06:35:09;;;;;;;24.60;16.35;;;;;;;6.39;66.23;101489.03;5005101;28;20091;-64
2023/04/06 06:37:38;;;;;;;24.67;15.88;;;;;;;6.43;66.42;101494.03;5037195;28;20047;-66
2023/04/06 06:40:12;;;;;;;23.13;16.33;;;;;;;6.45;66.96;101490.03;5045095;28;20045;-66
2023/04/06 06:42:41;;;;;;;27.55;16.83;;;;;;;6.45;67.26;101498.16;5029093;28;20505;-66
2023/04/06 06:45:20;;;;;;;22.50;13.25;;;;;;;6.49;66.40;101510.19;5029702;28;20049;-67
2023/04/06 06:47:47;;;;;;;18.17;12.73;;;;;;;6.61;70.03;101502.16;5029002;28;20083;-66
2023/04/06 06:50:15;;;;;;;26.08;15.63;;;;;;;6.56;67.47;101507.41;5029305;28;20678;-64
2023/04/06 06:52:43;;;;;;;23.58;15.70;;;;;;;6.50;67.94;101494.78;5045188;28;20049;-65
2023/04/06 06:55:11;;;;;;;24.35;16.20;;;;;;;6.49;67.98;101498.53;5013159;28;20045;-63
2023/04/06 06:57:39;;;;;;;26.02;15.98;;;;;;;6.49;68.17;101503.94;5016218;28;20096;-64
2023/04/06 07:00:08;;;;;;;21.77;14.90;;;;;;;6.47;68.25;101503.34;5031466;28;20050;-63
2023/04/06 07:02:39;;;;;;;26.40;15.48;;;;;;;6.49;68.78;101499.34;5015909;28;20512;-63
2023/04/06 07:05:08;;;;;;;26.02;16.95;;;;;;;6.49;68.53;101498.53;5032166;28;20086;-64
2023/04/06 07:07:54;;;;;;;26.60;15.88;;;;;;;6.50;68.74;101494.78;5052223;28;20045;-62
2023/04/06 07:10:22;;;;;;;20.83;14.05;;;;;;;6.50;69.25;101497.50;5028925;28;20404;-64
2023/04/06 07:12:50;;;;;;;25.40;15.32;;;;;;;6.53;68.92;101488.91;5052502;28;20458;-64
2023/04/06 07:15:18;;;;;;;24.33;16.30;;;;;;;6.53;68.97;101488.91;5016768;28;20481;-65
2023/04/06 07:17:46;;;;;;;28.50;16.38;;;;;;;6.53;69.30;101488.91;5016548;28;20042;-63
2023/04/06 07:20:14;;;;;;;44.03;18.00;;;;;;;6.51;69.21;101491.03;5044416;28;20128;-62
2023/04/06 07:22:44;;;;;;;35.70;17.40;;;;;;;6.45;69.54;101478.41;5046901;28;20045;-65
2023/04/06 07:25:12;;;;;;;28.60;15.88;;;;;;;6.44;69.76;101479.44;5052081;28;20056;-63
2023/04/06 07:27:42;;;;;;;28.35;16.60;;;;;;;6.47;70.00;101479.81;5022282;28;20049;-64
2023/04/06 07:30:11;;;;;;;28.83;15.73;;;;;;;6.54;70.79;101479.72;5024337;28;20051;-63
2023/04/06 07:32:39;;;;;;;22.67;13.13;;;;;;;6.60;70.44;101481.56;5047087;28;20122;-65
2023/04/06 07:35:07;;;;;;;25.77;14.70;;;;;;;6.64;70.18;101477.34;5017688;28;20102;-65
2023/04/06 07:37:35;;;;;;;22.38;10.98;;;;;;;6.66;70.43;101483.34;5026549;28;20045;-64
2023/04/06 07:40:03;;;;;;;20.05;13.25;;;;;;;6.71;70.61;101480.81;5036277;28;20046;-63
2023/04/06 07:42:32;;;;;;;24.98;14.65;;;;;;;6.72;72.17;101476.22;5054693;28;20145;-65
2023/04/06 07:45:03;;;;;;;27.45;15.00;;;;;;;6.77;72.51;101474.47;5056545;28;20099;-64
2023/04/06 07:47:31;;;;;;;33.15;16.40;;;;;;;6.72;72.14;101468.91;5002675;28;20072;-63
2023/04/06 07:49:59;;;;;;;23.38;13.70;;;;;;;6.74;72.61;101479.53;5016801;28;20124;-63
2023/04/06 07:52:26;;;;;;;24.35;15.38;;;;;;;6.70;72.21;101478.31;5031769;28;20510;-63
2023/04/06 07:54:54;;;;;;;28.83;13.73;;;;;;;6.74;72.92;101480.34;5032619;28;20105;-63
2023/04/06 07:57:22;;;;;;;22.75;14.93;;;;;;;6.82;73.20;101481.94;5029449;28;20110;-62
2023/04/06 07:59:50;;;;;;;22.63;15.73;;;;;;;6.81;73.11;101488.41;5019115;28;20045;-64
2023/04/06 08:02:17;;;;;;;24.60;15.65;;;;;;;6.82;72.62;101480.03;5046568;28;20073;-64
2023/04/06 08:04:47;;;;;;;28.92;16.00;;;;;;;6.79;72.60;101482.38;5035416;28;20052;-62
2023/04/06 08:07:15;;;;;;;20.20;15.63;;;;;;;6.79;72.86;101480.50;5039352;28;20045;-66
2023/04/06 08:09:42;;;;;;;23.90;16.52;;;;;;;6.76;73.10;101494.50;5036884;28;20049;-63
2023/04/06 08:12:10;;;;;;;24.20;16.70;;;;;;;6.76;74.18;101480.97;5040494;28;20049;-64
2023/04/06 08:14:39;;;;;;;24.35;16.52;;;;;;;6.79;73.95;101483.22;5038390;28;20124;-65
2023/04/06 08:17:06;;;;;;;25.60;17.60;;;;;;;6.83;73.98;101484.41;5041067;28;20397;-62
2023/04/06 08:19:34;;;;;;;23.73;15.82;;;;;;;6.91;73.33;101479.75;5029946;28;20044;-63
2023/04/06 08:22:02;;;;;;;24.70;15.65;;;;;;;6.98;72.53;101472.38;5056776;28;20060;-63
2023/04/06 08:24:32;;;;;;;23.25;13.65;;;;;;;7.01;71.32;101474.59;5052158;28;20159;-64
2023/04/06 08:26:59;;;;;;;26.13;14.15;;;;;;;7.04;71.44;101472.25;5034939;28;20045;-64
2023/04/06 08:29:27;;;;;;;23.30;13.30;;;;;;;7.08;70.12;101478.06;5041608;28;20485;-63
2023/04/06 08:31:55;;;;;;;21.98;13.85;;;;;;;7.12;69.64;101481.97;5039136;28;20083;-64
2023/04/06 08:34:23;;;;;;;26.17;12.35;;;;;;;7.18;70.13;101480.22;5054574;28;20053;-64
2023/04/06 08:36:52;;;;;;;20.42;13.18;;;;;;;7.22;70.19;101482.25;5025607;28;20108;-64
2023/04/06 08:39:25;;;;;;;21.38;12.40;;;;;;;7.25;69.76;101481.78;5033910;28;20128;-65
2023/04/06 08:41:56;;;;;;;30.38;16.63;;;;;;;7.27;68.29;101480.75;5021623;28;20492;-67
2023/04/06 08:44:24;;;;;;;25.02;16.27;;;;;;;7.22;69.20;101486.84;5055076;28;20531;-64
2023/04/06 08:46:52;;;;;;;24.60;15.63;;;;;;;7.21;69.54;101480.56;5041263;28;20045;-65
2023/04/06 08:49:20;;;;;;;23.88;16.65;;;;;;;7.22;69.74;101482.25;5039219;28;20041;-64
2023/04/06 08:51:50;;;;;;;22.08;15.65;;;;;;;7.24;69.32;101480.13;5052088;28;20098;-64
2023/04/06 08:54:18;;;;;;;25.10;12.85;;;;;;;7.31;69.17;101484.63;5037775;28;20068;-64
2023/04/06 08:56:46;;;;;;;29.67;16.10;;;;;;;7.29;68.88;101470.47;5046229;28;20107;-64
2023/04/06 08:59:14;;;;;;;23.75;16.08;;;;;;;7.31;68.67;101473.78;5039426;28;20119;-64
2023/04/06 09:01:43;;;;;;;27.98;17.35;;;;;;;7.30;67.74;101481.09;5044803;28;20065;-63
2023/04/06 09:04:13;;;;;;;25.65;16.60;;;;;;;7.32;67.88;101475.44;5034181;28;20048;-63
2023/04/06 09:06:41;;;;;;;22.15;12.98;;;;;;;7.42;70.29;101481.13;5017836;28;20094;-64
2023/04/06 09:09:09;;;;;;;24.77;12.75;;;;;;;7.53;72.79;101483.06;5035585;28;20069;-64
2023/04/06 09:11:48;;;;;;;24.10;14.85;;;;;;;7.65;73.37;101485.81;5034805;28;20148;-64
2023/04/06 09:14:16;;;;;;;21.60;12.32;;;;;;;7.67;74.40;101489.94;5034851;28;20409;-63
2023/04/06 09:16:45;;;;;;;22.75;9.93;;;;;;;7.65;73.15;101489.34;5034281;28;20048;-64
2023/04/06 09:19:13;;;;;;;22.30;12.30;;;;;;;7.73;75.08;101487.38;5018421;28;20049;-65
2023/04/06 09:21:42;;;;;;;22.15;12.88;;;;;;;7.74;74.42;101483.56;5035752;28;20056;-65
2023/04/06 09:24:10;;;;;;;22.05;8.13;;;;;;;7.79;77.64;101486.41;5036215;28;20120;-65
2023/04/06 09:26:47;;;;;;;20.65;11.90;;;;;;;7.89;78.85;101482.09;5051646;28;20136;-64
2023/04/06 09:29:26;;;;;;;18.88;11.07;;;;;;;7.88;77.36;101479.59;5035703;28;20046;-65
2023/04/06 09:32:04;;;;;;;20.00;11.45;;;;;;;7.88;76.28;101480.41;5034574;28;20076;-63
2023/04/06 09:34:32;;;;;;;22.45;12.32;;;;;;;7.88;73.50;101480.41;5033458;28;20461;-64
2023/04/06 09:37:01;;;;;;;23.23;11.85;;;;;;;7.89;73.33;101481.25;5034294;28;20087;-64
2023/04/06 09:39:29;;;;;;;21.42;12.95;;;;;;;7.88;72.67;101476.88;5035260;28;20401;-64
2023/04/06 09:41:57;;;;;;;18.38;11.60;;;;;;;7.93;75.24;101481.59;5033356;28;20049;-65
2023/04/06 09:44:24;;;;;;;23.52;16.42;;;;;;;7.89;70.08;101475.84;5017128;28;20108;-63
2023/04/06 09:46:54;;;;;;;24.63;16.70;;;;;;;7.84;70.40;101481.09;5033676;28;20413;-64
2023/04/06 09:49:32;;;;;;;26.92;17.02;;;;;;;7.82;70.19;101475.94;5018242;28;20107;-64
2023/04/06 09:52:02;;;;;;;23.35;15.98;;;;;;;7.84;70.15;101478.41;5034281;28;20053;-63
2023/04/06 09:54:31;;;;;;;28.52;17.20;;;;;;;7.85;71.27;101480.88;5038817;28;20492;-63
2023/04/06 09:57:04;;;;;;;28.52;17.95;;;;;;;7.88;71.89;101490.44;5041704;28;20075;-63
2023/04/06 10:00:03;;;;;;;25.33;17.88;;;;;;;7.89;71.37;101484.81;5036657;28;20046;-64
2023/04/06 10:02:59;;;;;;;26.77;16.88;;;;;;;7.94;72.67;101472.41;5037085;28;20053;-65
2023/04/06 10:05:33;;;;;;;;;;;;;;;7.99;73.81;101488.81;5041405;28;20056;-64
2023/04/06 10:08:11;;;;;;;28.95;16.38;;;;;;;8.01;75.66;101484.81;5053356;28;19920;-62
2023/04/06 10:10:39;;;;;;;25.15;15.85;;;;;;;8.05;76.86;101479.72;5077156;28;20052;-62
2023/04/06 10:13:09;;;;;;;24.65;14.75;;;;;;;8.08;78.21;101480.09;5044224;28;20049;-62
2023/04/06 10:15:40;;;;;;;19.85;13.95;;;;;;;8.14;78.92;101482.94;5048746;28;20041;-65
2023/04/06 10:18:07;;;;;;;17.35;10.30;;;;;;;8.21;78.26;101486.34;5033454;28;20049;-64
2023/04/06 10:21:02;;;;;;;19.58;9.60;;;;;;;8.35;80.17;101492.38;5033498;28;20052;-65
2023/04/06 10:23:33;;;;;;;19.15;11.50;;;;;;;8.35;79.42;101486.97;5047238;28;20080;-64
2023/04/06 10:26:02;;;;;;;15.15;10.18;;;;;;;8.33;79.93;101492.63;5017458;28;20055;-64
2023/04/06 10:28:36;;;;;;;14.77;9.85;;;;;;;8.37;80.81;101485.66;5049730;28;20041;-64
2023/04/06 10:31:07;;;;;;;20.92;12.32;;;;;;;8.38;82.42;101489.19;5057746;28;20049;-65
2023/04/06 10:33:35;;;;;;;17.67;11.27;;;;;;;8.37;82.15;101496.50;5048043;28;20048;-65
2023/04/06 10:36:23;;;;;;;13.43;6.93;;;;;;;8.55;85.69;101487.44;5042032;28;20056;-64
2023/04/06 10:38:59;;;;;;;17.02;9.70;;;;;;;8.60;86.44;101492.16;4325844;28;10000359;-65
2023/04/06 10:41:41;;;;;;;18.07;10.20;;;;;;;8.67;87.60;101492.84;5032979;28;20053;-63
2023/04/06 10:44:16;;;;;;;15.88;8.45;;;;;;;8.61;87.60;101491.06;5030116;28;20241;-65
2023/04/06 10:46:53;;;;;;;15.27;8.73;;;;;;;8.54;87.96;101488.50;5029519;28;20448;-66
2023/04/06 10:49:21;;;;;;;15.73;8.00;;;;;;;8.52;nan;101490.63;5029106;28;20061;-63
2023/04/06 10:51:56;;;;;;;16.17;8.38;;;;;;;8.53;90.58;101497.69;5029421;28;20045;-65
2023/04/06 10:54:25;;;;;;;18.35;10.48;;;;;;;8.51;91.32;101492.53;5026950;28;20050;-64
2023/04/06 10:56:53;;;;;;;13.63;7.60;;;;;;;8.53;92.42;101493.09;5029056;28;20057;-62
2023/04/06 10:59:21;;;;;;;12.85;7.28;;;;;;;8.52;92.93;101480.59;5028781;28;20136;-66
2023/04/06 11:01:50;;;;;;;14.05;7.43;;;;;;;8.58;95.44;101488.84;5011857;28;20046;-65
2023/04/06 11:04:19;;;;;;;12.25;6.95;;;;;;;8.78;96.70;101478.44;5029651;28;20046;-65
2023/04/06 11:06:48;;;;;;;13.20;7.45;;;;;;;8.73;96.24;101479.13;5049529;28;20071;-64
2023/04/06 11:09:27;;;;;;;11.13;4.70;;;;;;;8.83;99.46;101473.09;5048704;28;20044;-65
2023/04/06 11:11:56;;;;;;;12.10;6.28;;;;;;;8.99;100.00;101473.38;5009175;28;20104;-66
2023/04/06 11:14:26;;;;;;;11.50;5.95;;;;;;;9.02;100.00;101470.19;5018605;28;20132;-65
2023/04/06 11:16:54;;;;;;;13.68;6.20;;;;;;;8.94;100.00;101477.66;5065264;28;20053;-62
2023/04/06 11:19:22;;;;;;;10.98;4.80;;;;;;;9.05;100.00;101475.16;5047745;28;20045;-63
2023/04/06 11:21:50;;;;;;;10.00;4.93;;;;;;;9.18;100.00;101477.56;5047988;28;20057;-65
2023/04/06 11:24:21;;;;;;;9.18;5.00;;;;;;;9.08;100.00;101471.94;5034617;28;20140;-64
2023/04/06 11:26:50;;;;;;;10.57;6.72;;;;;;;9.00;100.00;101464.19;5040453;28;20052;-65
2023/04/06 11:29:30;;;;;;;12.15;7.40;;;;;;;8.67;99.91;101461.06;5051600;28;20049;-64
2023/04/06 11:32:06;;;;;;;11.90;7.43;;;;;;;8.50;100.00;101463.69;5048682;28;20456;-64
2023/04/06 11:34:36;;;;;;;10.55;6.10;;;;;;;8.49;100.00;101458.50;5034793;28;20529;-62
2023/04/06 11:37:09;;;;;;;13.02;5.03;;;;;;;8.47;100.00;101456.03;5032430;28;20053;-65